UACC/TSE METAR and TAF weather

Enter ICAO airport designator
Station Type Date Time Source
UACC METAR 2018/12/13 06:00 UTC NOAA

UACC 130600Z 16003MPS 9999 FEW011 BKN040 M18/M20 Q1030 R22/450560 NOSIG RMK QFE741/0988


Station Type Date Time Source
UACC Decoded METAR 2018/12/13 06:00 UTC NOAA

Astana, Kazakhstan (UACC) 51-12N 071-27E
Dec 13, 2018 - 01:00 AM EST / 2018.12.13 0600 UTC
Wind: from the SSE (160 degrees) at 7 MPH (6 KT):0
Visibility: greater than 7 mile(s):0
Sky conditions: mostly cloudy
Temperature: 0 F (-18 C)
Windchill: -13 F (-25 C):2
Dew Point: -4 F (-20 C)
Relative Humidity: 84%
Pressure (altimeter): 30.42 in. Hg (1030 hPa)
ob: UACC 130600Z 16003MPS 9999 FEW011 BKN040 M18/M20 Q1030 R22/450560 NOSIG RMK QFE741/0988
cycle: 6

Station Type Date Time Source
UACC TAF 2018/12/13 06:18 UTC NOAA

TAF UACC 130500Z 1306/1406 19004MPS 9999 SCT010 BKN060 TXM13/1309Z TNM19/1401Z
TEMPO 1306/1312 VRB02MPS -SN SCT005
TEMPO 1312/1318 1000 -SN BR SCT003 BKN020
TEMPO 1318/1405 VRB02MPS 2000 BR SCT003 BKN020


Example: see airport list